createdAt,value
2018-06-23T00:00:47.605Z,17.57
2018-06-23T00:05:50.668Z,13.93
2018-06-23T00:11:11.901Z,15.77
2018-06-23T00:16:15.165Z,16.77
2018-06-23T00:21:18.209Z,11.90
2018-06-23T00:26:26.996Z,10.70
2018-06-23T00:31:30.089Z,17.63
2018-06-23T00:36:37.313Z,17.63
2018-06-23T00:41:40.345Z,13.23
2018-06-23T00:46:43.410Z,18.23
2018-06-23T00:51:46.448Z,16.70
2018-06-23T00:56:50.026Z,24.13
2018-06-23T01:01:53.061Z,14.30
2018-06-23T01:06:56.096Z,17.40
2018-06-23T01:12:00.116Z,15.60
2018-06-23T01:17:04.073Z,23.10
2018-06-23T01:22:07.109Z,16.13
2018-06-23T01:27:10.146Z,24.50
2018-06-23T01:32:13.205Z,19.60
2018-06-23T01:37:17.017Z,22.90
2018-06-23T01:42:21.092Z,18.50
2018-06-23T01:47:25.121Z,19.73
2018-06-23T01:52:28.163Z,17.27
2018-06-23T01:57:31.213Z,18.27
2018-06-23T02:02:34.296Z,28.20
2018-06-23T02:07:38.066Z,24.03
2018-06-23T02:12:41.317Z,19.37
2018-06-23T02:17:49.939Z,20.97
2018-06-23T02:24:02.557Z,23.03
2018-06-23T02:29:11.070Z,21.73
2018-06-23T02:34:32.349Z,22.60
2018-06-23T02:39:35.625Z,28.27
2018-06-23T02:44:38.905Z,21.30
2018-06-23T02:49:41.982Z,24.10
2018-06-23T02:54:45.485Z,17.97
2018-06-23T02:59:48.702Z,18.27
2018-06-23T03:04:51.923Z,22.27
2018-06-23T03:09:55.103Z,26.23
2018-06-23T03:14:58.463Z,24.30
2018-06-23T03:20:01.493Z,27.27
2018-06-23T03:25:04.561Z,18.20
2018-06-23T03:30:07.641Z,21.43
2018-06-23T03:35:10.699Z,20.87
2018-06-23T03:40:13.742Z,28.77
2018-06-23T03:50:51.279Z,24.97
2018-06-23T03:55:54.329Z,20.97
2018-06-23T04:01:03.285Z,20.07
2018-06-23T04:06:06.330Z,19.33
2018-06-23T04:11:10.357Z,23.30
2018-06-23T04:16:13.401Z,28.07
2018-06-23T04:21:16.437Z,21.93
2018-06-23T04:26:44.413Z,26.23
2018-06-23T04:31:47.706Z,21.77
2018-06-23T04:37:12.713Z,25.30
2018-06-23T04:42:23.032Z,27.97
2018-06-23T04:47:40.950Z,25.63
2018-06-23T04:52:44.080Z,29.63
2018-06-23T04:57:47.140Z,20.43
2018-06-23T05:02:50.236Z,19.00
2018-06-23T05:07:53.276Z,28.40
2018-06-23T05:12:56.417Z,24.83
2018-06-23T05:18:10.374Z,25.03
2018-06-23T05:23:13.388Z,30.53
2018-06-23T05:28:19.403Z,20.47
2018-06-23T05:33:24.398Z,19.97
2018-06-23T05:38:27.462Z,16.23
2018-06-23T05:43:30.506Z,19.77
2018-06-23T05:48:34.060Z,17.23
2018-06-23T05:53:38.131Z,19.30
2018-06-23T05:58:41.209Z,22.77
2018-06-23T06:03:44.343Z,21.40
2018-06-23T06:09:12.729Z,18.97
2018-06-23T06:20:51.172Z,16.07
2018-06-23T06:26:17.057Z,17.37
2018-06-23T06:31:20.515Z,13.67
2018-06-23T06:36:23.611Z,16.70
2018-06-23T06:41:28.129Z,18.67
2018-06-23T06:46:31.182Z,16.63
2018-06-23T06:51:52.937Z,17.27
2018-06-23T06:56:55.978Z,21.97
2018-06-23T07:01:59.621Z,19.07
2018-06-23T07:07:03.398Z,15.40
2018-06-23T07:12:06.502Z,13.00
2018-06-23T07:17:09.561Z,19.37
2018-06-23T07:22:12.693Z,20.00
2018-06-23T07:27:15.840Z,16.03
2018-06-23T07:32:18.938Z,17.87
2018-06-23T07:37:22.001Z,15.97
2018-06-23T07:42:25.833Z,14.93
2018-06-23T07:47:28.974Z,16.50
2018-06-23T07:52:32.092Z,19.67
2018-06-23T07:57:35.746Z,17.40
2018-06-23T08:02:38.813Z,15.33
2018-06-23T08:07:44.707Z,16.17
2018-06-23T08:12:47.796Z,22.37
2018-06-23T08:17:51.283Z,21.33
2018-06-23T08:22:54.354Z,19.50
2018-06-23T08:28:25.634Z,14.80
2018-06-23T08:33:28.701Z,16.17
2018-06-23T08:38:31.749Z,19.63
2018-06-23T08:43:35.373Z,22.13
2018-06-23T08:48:38.428Z,12.90
2018-06-23T08:53:46.415Z,15.27
2018-06-23T08:58:49.447Z,16.40
2018-06-23T09:03:52.498Z,16.33
2018-06-23T09:09:16.538Z,17.67
2018-06-23T09:14:21.725Z,16.47
2018-06-23T09:19:25.023Z,18.20
2018-06-23T09:24:27.960Z,18.30
2018-06-23T09:29:31.272Z,16.43
2018-06-23T09:34:34.432Z,15.83
2018-06-23T09:39:37.480Z,11.67
2018-06-23T09:44:40.573Z,17.23
2018-06-23T09:49:43.639Z,13.70
2018-06-23T09:54:46.684Z,8.37
2018-06-23T09:59:50.500Z,14.73
2018-06-23T10:04:53.361Z,11.73
2018-06-23T10:09:56.434Z,15.43
2018-06-23T10:14:59.505Z,14.00
2018-06-23T10:20:02.557Z,14.50
2018-06-23T10:25:06.698Z,11.37
2018-06-23T10:30:09.818Z,12.63
2018-06-23T10:35:14.168Z,12.63
2018-06-23T10:40:17.306Z,12.30
2018-06-23T10:45:20.293Z,8.43
2018-06-23T10:50:23.426Z,13.13
2018-06-23T10:55:26.307Z,9.83
2018-06-23T11:00:29.407Z,7.63
2018-06-23T11:05:36.690Z,8.40
2018-06-23T11:10:39.757Z,9.13
2018-06-23T11:15:43.889Z,11.93
2018-06-23T11:20:46.958Z,9.07
2018-06-23T11:25:52.137Z,12.20
2018-06-23T11:30:55.231Z,9.13
2018-06-23T11:35:58.547Z,12.77
2018-06-23T11:41:01.619Z,11.17
2018-06-23T11:46:06.982Z,10.03
2018-06-23T11:51:16.839Z,14.60
2018-06-23T11:56:19.923Z,10.00
2018-06-23T12:01:22.974Z,12.30
2018-06-23T12:06:26.662Z,9.10
2018-06-23T12:11:29.769Z,11.53
2018-06-23T12:16:32.830Z,17.73
2018-06-23T12:21:36.013Z,9.30
2018-06-23T12:26:39.174Z,12.00
2018-06-23T12:31:42.268Z,13.97
2018-06-23T12:36:45.325Z,12.87
2018-06-23T12:41:48.383Z,11.37
2018-06-23T12:46:56.672Z,12.27
2018-06-23T12:51:59.714Z,10.57
2018-06-23T12:57:03.780Z,11.87
2018-06-23T13:02:06.916Z,11.10
2018-06-23T13:07:10.306Z,10.53
2018-06-23T13:12:13.345Z,4.37
2018-06-23T13:17:16.386Z,8.13
2018-06-23T13:22:19.529Z,8.70
2018-06-23T13:27:22.506Z,9.00
2018-06-23T13:32:27.530Z,6.43
2018-06-23T13:37:30.641Z,7.17
2018-06-23T13:42:33.693Z,7.37
2018-06-23T13:47:36.737Z,8.23
2018-06-23T13:52:56.128Z,6.10
2018-06-23T13:57:59.178Z,12.47
2018-06-23T14:03:02.329Z,5.77
2018-06-23T14:08:05.380Z,7.80
2018-06-23T14:13:08.443Z,9.70
2018-06-23T14:18:11.484Z,5.13
2018-06-23T14:23:14.581Z,9.00
2018-06-23T14:28:17.889Z,7.53
2018-06-23T14:33:20.948Z,5.30
2018-06-23T14:38:24.086Z,5.20
2018-06-23T14:43:27.131Z,8.57
2018-06-23T14:48:30.233Z,5.20
2018-06-23T14:53:33.764Z,6.80
2018-06-23T14:58:55.389Z,5.97
2018-06-23T15:03:58.457Z,8.93
2018-06-23T15:09:13.215Z,5.50
2018-06-23T15:14:16.424Z,6.93
2018-06-23T15:19:19.464Z,3.87
2018-06-23T15:24:22.532Z,3.40
2018-06-23T15:29:25.920Z,5.77
2018-06-23T15:34:33.486Z,3.93
2018-06-23T15:39:36.944Z,8.67
2018-06-23T15:44:40.517Z,8.17
2018-06-23T15:49:43.552Z,2.57
2018-06-23T15:54:46.722Z,5.23
2018-06-23T15:59:49.794Z,3.93
2018-06-23T16:04:52.846Z,7.03
2018-06-23T16:09:55.990Z,5.77
2018-06-23T16:14:59.047Z,6.37
2018-06-23T16:20:02.194Z,4.87
2018-06-23T16:25:05.593Z,6.23
2018-06-23T16:30:08.769Z,4.80
2018-06-23T16:35:12.095Z,6.47
2018-06-23T16:40:14.873Z,4.47
2018-06-23T16:45:17.907Z,7.57
2018-06-23T16:50:20.977Z,5.13
2018-06-23T16:55:24.039Z,6.37
2018-06-23T17:00:27.140Z,8.07
2018-06-23T17:05:30.205Z,5.30
2018-06-23T17:10:33.294Z,6.73
2018-06-23T17:15:36.320Z,4.60
2018-06-23T17:20:39.640Z,3.77
2018-06-23T17:25:43.600Z,5.27
2018-06-23T17:30:46.628Z,4.17
2018-06-23T17:35:58.800Z,4.60
2018-06-23T17:41:04.020Z,4.47
2018-06-23T17:46:07.053Z,7.93
2018-06-23T17:51:10.124Z,5.50
2018-06-23T17:56:30.990Z,4.47
2018-06-23T18:01:34.769Z,7.10
2018-06-23T18:06:37.817Z,4.13
2018-06-23T18:11:40.853Z,4.90
2018-06-23T18:16:43.924Z,4.60
2018-06-23T18:21:47.081Z,5.80
2018-06-23T18:26:50.345Z,5.83
2018-06-23T18:31:53.369Z,4.30
2018-06-23T18:36:56.404Z,6.80
2018-06-23T18:41:59.538Z,3.80
2018-06-23T18:47:02.585Z,7.23
2018-06-23T18:52:06.313Z,7.17
2018-06-23T18:57:09.440Z,6.13
2018-06-23T19:02:12.545Z,4.00
2018-06-23T19:07:15.597Z,5.27
2018-06-23T19:12:18.644Z,6.63
2018-06-23T19:17:21.803Z,5.03
2018-06-23T19:22:24.833Z,4.73
2018-06-23T19:27:27.868Z,7.30
2018-06-23T19:32:30.917Z,3.90
2018-06-23T19:38:08.550Z,4.07
2018-06-23T19:43:11.629Z,4.13
2018-06-23T19:48:14.689Z,11.23
2018-06-23T19:53:25.587Z,4.87
2018-06-23T19:58:28.604Z,4.13
2018-06-23T20:03:32.389Z,4.07
2018-06-23T20:08:35.422Z,5.70
2018-06-23T20:13:38.464Z,5.73
2018-06-23T20:18:42.198Z,8.83
2018-06-23T20:23:45.470Z,8.67
2018-06-23T20:28:48.905Z,5.10
2018-06-23T20:33:52.093Z,2.77
2018-06-23T20:38:55.319Z,3.80
2018-06-23T20:43:58.416Z,5.73
2018-06-23T20:49:01.469Z,5.90
2018-06-23T20:54:04.554Z,6.73
2018-06-23T20:59:20.886Z,5.45
2018-06-23T21:04:24.834Z,7.43
2018-06-23T21:09:27.986Z,7.20
2018-06-23T21:14:31.034Z,5.60
2018-06-23T21:19:40.609Z,5.93
2018-06-23T21:24:43.484Z,4.67
2018-06-23T21:29:46.693Z,5.80
2018-06-23T21:34:50.302Z,4.23
2018-06-23T21:39:53.389Z,4.60
2018-06-23T21:44:56.568Z,3.70
2018-06-23T21:49:59.610Z,5.67
2018-06-23T21:55:04.436Z,5.27
2018-06-23T22:00:21.029Z,4.83
2018-06-23T22:05:24.068Z,6.40
2018-06-23T22:10:27.781Z,5.97
2018-06-23T22:15:30.820Z,6.97
2018-06-23T22:20:33.944Z,5.97
2018-06-23T22:25:36.993Z,5.80
2018-06-23T22:30:40.045Z,8.27
2018-06-23T22:35:43.100Z,3.80
2018-06-23T22:40:46.143Z,5.50
2018-06-23T22:45:49.181Z,6.03
2018-06-23T22:50:52.128Z,5.90
2018-06-23T22:55:55.168Z,6.40
2018-06-23T23:00:58.218Z,7.73
2018-06-23T23:06:02.203Z,3.67
2018-06-23T23:11:05.500Z,5.23
2018-06-23T23:16:08.549Z,5.63
2018-06-23T23:21:11.596Z,6.27
2018-06-23T23:26:14.705Z,5.80
2018-06-23T23:31:17.753Z,7.80
2018-06-23T23:36:20.802Z,6.77
2018-06-23T23:41:23.861Z,4.83
2018-06-23T23:46:26.908Z,5.00
2018-06-23T23:51:29.952Z,6.17
2018-06-23T23:56:33.069Z,8.50
